Dorothy, WV (25060)

10:07 PM EDT on July 28, 2016 (GMT -0400)
Joes Creek | | Change Station

Elev 784 ft 38.12 °N, 81.59 °W | Updated 3 minutes ago

Light Rain
Light Rain
72.3 °F
Feels Like 72.3 °F
N
0.0
Wind Variable Wind from WSW
Gusts 0.0 mph

Today
High -- | Low -- °F
--% Chance of Precip.
Yesterday
High -- | Low -- °F
Precip. -- in
Pressure 29.91 in
Visibility 10.0 miles
Clouds Few 400 ft
Mostly Cloudy 3600 ft
Overcast 11000 ft
Dew Point 71 °F
Humidity 97%
Rainfall 0.66 in
Snow Depth Not available.
6:26 AM 8:38 PM
Waning Crescent, 26% visible
METAR KBKW 290151Z AUTO 27006KT 10SM -RA FEW004 BKN036 OVC110 21/19 A3000 RMK AO2 CIG 006 RWY19 SLP126 P0003 T02060194
Pressure 29.91 in
Visibility 10.0 miles
Clouds Few 400 ft
Mostly Cloudy 3600 ft
Overcast 11000 ft
Dew Point 71 °F
Humidity 97%
Rainfall 0.66 in
Snow Depth Not available.
6:26 AM 8:38 PM
Waning Crescent, 26% visible
METAR KBKW 290151Z AUTO 27006KT 10SM -RA FEW004 BKN036 OVC110 21/19 A3000 RMK AO2 CIG 006 RWY19 SLP126 P0003 T02060194

10-Day Weather Forecast

Almanac

Astronomy

Jul. 28, 2016 Rise Set
Actual Time
Civil Twilight
Nautical Twilight
Astronomical Twilight
Moon
Length of Visible Light
Length of Day
Tomorrow will be .
, % of the Moon is Illuminated

Today's Extremes

State Highs State Lows

Community

WunderPhotos

Upload Photos

1,928,265 photos uploaded!

WunderBlog® & News

Nearby

Air Quality

  Air Quality AQ Index Pollutant
Not available.

Snow Depth

Station Depth Elevation

Earthquake Activity

City Distance Mag. Time & Date
Minimum magnitude displayed is 2.5.

Coastal Water Temperatures

Place Temperature

Stations

Nearby Weather Stations

Station Location Temp. Windchill Dew Point Humidity Wind Precip. Elev Updated Type
                   

Watches & Warnings

There are currently no watches in effect.